This is the latest recevied weather packets stored in our database for station/object IA5ITY-13. If no packets are shown the sender has not sent any weather packets the latest 10 day(s).
| Time | Temp. | Humidity | Pressure | Rain* | Wind** | Luminosity | Snow |
|---|---|---|---|---|---|---|---|
| 1777909513 | 20° C | 74% | 1015.4 hPa | 0 mm | - | - | - |
| 1777909213 | 20° C | 70% | 1015.4 hPa | 0 mm | - | - | - |
| 1777908909 | 20° C | 70% | 1015.6 hPa | 0 mm | - | - | - |
| 1777908623 | 21.11° C | 66% | 1015.6 hPa | 0 mm | - | - | - |
| 1777908310 | 21.11° C | 65% | 1015.6 hPa | 0 mm | - | - | - |
| 1777908014 | 22.22° C | 64% | 1015.6 hPa | 0 mm | - | - | - |
| 1777907713 | 22.22° C | 65% | 1015.6 hPa | 0 mm | - | - | - |
| 1777907414 | 21.11° C | 66% | 1015.5 hPa | 0 mm | - | - | - |
| 1777906833 | 22.22° C | 63% | 1015.5 hPa | 0 mm | - | - | - |
| 1777906509 | 21.11° C | 64% | 1015.6 hPa | 0 mm | - | - | - |
| 1777906214 | 22.22° C | 63% | 1015.7 hPa | 0 mm | - | - | - |
| 1777905912 | 22.22° C | 64% | 1015.8 hPa | 0 mm | - | - | - |
| 1777905613 | 20° C | 68% | 1015.8 hPa | 0 mm | - | - | - |
| 1777905309 | 20° C | 70% | 1015.8 hPa | 0 mm | - | - | - |
| 1777905023 | 21.11° C | 62% | 1015.8 hPa | 0 mm | - | - | - |
| 1777904709 | 21.11° C | 63% | 1015.5 hPa | 0 mm | - | - | - |
| 1777904414 | 22.78° C | 59% | 1015.7 hPa | 0 mm | - | - | - |
| 1777904113 | 22.78° C | 59% | 1016 hPa | 0 mm | - | - | - |
| 1777903813 | 22.22° C | 65% | 1016 hPa | 0 mm | - | - | - |
| 1777903510 | 20° C | 70% | 1016 hPa | 0 mm | - | - | - |
| 1777903231 | 20° C | 71% | 1016 hPa | 0 mm | - | - | - |
| 1777902909 | 20° C | 69% | 1016.1 hPa | 0 mm | - | - | - |
| 1777902613 | 20° C | 68% | 1016.2 hPa | 0 mm | - | - | - |
| 1777902314 | 21.11° C | 66% | 1016 hPa | 0 mm | - | - | - |
| 1777902012 | 21.11° C | 63% | 1015.9 hPa | 0 mm | - | - | - |
* Rain latest hour (hover to see other rain measurements)
** Current wind speed in m/s (hover to see current wind gust speed)